sensor_id;sensor_type;location;lat;lon;timestamp;P1;durP1;ratioP1;P2;durP2;ratioP2
2362;SDS011;64265;51.664;7.626;2023-06-24T00:00:21;4.87;;;4.40;;
2362;SDS011;64265;51.664;7.626;2023-06-24T00:02:47;4.93;;;4.47;;
2362;SDS011;64265;51.664;7.626;2023-06-24T00:05:16;5.57;;;4.43;;
2362;SDS011;64265;51.664;7.626;2023-06-24T00:07:43;5.50;;;5.00;;
2362;SDS011;64265;51.664;7.626;2023-06-24T00:10:10;4.70;;;4.30;;
2362;SDS011;64265;51.664;7.626;2023-06-24T00:12:38;4.10;;;3.70;;
2362;SDS011;64265;51.664;7.626;2023-06-24T00:15:06;7.17;;;3.93;;
2362;SDS011;64265;51.664;7.626;2023-06-24T00:17:34;4.97;;;3.67;;
2362;SDS011;64265;51.664;7.626;2023-06-24T00:20:01;4.73;;;3.77;;
2362;SDS011;64265;51.664;7.626;2023-06-24T00:22:32;4.23;;;3.93;;
2362;SDS011;64265;51.664;7.626;2023-06-24T00:24:59;3.77;;;3.47;;
2362;SDS011;64265;51.664;7.626;2023-06-24T00:27:26;4.20;;;3.80;;
2362;SDS011;64265;51.664;7.626;2023-06-24T00:29:54;4.23;;;3.70;;
2362;SDS011;64265;51.664;7.626;2023-06-24T00:32:20;6.13;;;4.13;;
2362;SDS011;64265;51.664;7.626;2023-06-24T00:34:47;4.67;;;4.37;;
2362;SDS011;64265;51.664;7.626;2023-06-24T00:37:15;5.00;;;4.00;;
2362;SDS011;64265;51.664;7.626;2023-06-24T00:39:42;4.13;;;3.83;;
2362;SDS011;64265;51.664;7.626;2023-06-24T00:42:08;5.07;;;4.57;;
2362;SDS011;64265;51.664;7.626;2023-06-24T00:44:35;5.97;;;4.00;;
2362;SDS011;64265;51.664;7.626;2023-06-24T00:47:06;4.43;;;4.03;;
2362;SDS011;64265;51.664;7.626;2023-06-24T00:49:34;4.37;;;4.00;;
2362;SDS011;64265;51.664;7.626;2023-06-24T00:52:00;4.00;;;3.70;;
2362;SDS011;64265;51.664;7.626;2023-06-24T00:54:27;4.30;;;3.90;;
2362;SDS011;64265;51.664;7.626;2023-06-24T00:56:56;4.70;;;3.30;;
2362;SDS011;64265;51.664;7.626;2023-06-24T00:59:25;5.37;;;4.07;;
2362;SDS011;64265;51.664;7.626;2023-06-24T01:01:54;4.80;;;3.87;;
2362;SDS011;64265;51.664;7.626;2023-06-24T01:04:22;4.00;;;3.70;;
2362;SDS011;64265;51.664;7.626;2023-06-24T01:06:50;6.50;;;4.70;;
2362;SDS011;64265;51.664;7.626;2023-06-24T01:09:16;4.30;;;4.00;;
2362;SDS011;64265;51.664;7.626;2023-06-24T01:11:43;7.20;;;4.07;;
2362;SDS011;64265;51.664;7.626;2023-06-24T01:14:10;4.77;;;4.20;;
2362;SDS011;64265;51.664;7.626;2023-06-24T01:16:37;4.67;;;4.27;;
2362;SDS011;64265;51.664;7.626;2023-06-24T01:19:16;4.40;;;4.00;;
2362;SDS011;64265;51.664;7.626;2023-06-24T01:22:12;4.30;;;3.90;;
2362;SDS011;64265;51.664;7.626;2023-06-24T01:24:52;4.63;;;4.23;;
2362;SDS011;64265;51.664;7.626;2023-06-24T01:30:38;4.50;;;4.20;;
2362;SDS011;64265;51.664;7.626;2023-06-24T01:33:36;6.80;;;3.87;;
2362;SDS011;64265;51.664;7.626;2023-06-24T01:36:05;4.77;;;4.37;;
2362;SDS011;64265;51.664;7.626;2023-06-24T01:38:36;4.83;;;4.43;;
2362;SDS011;64265;51.664;7.626;2023-06-24T01:41:09;4.40;;;4.00;;
2362;SDS011;64265;51.664;7.626;2023-06-24T01:43:39;4.13;;;3.83;;
2362;SDS011;64265;51.664;7.626;2023-06-24T01:46:08;4.60;;;4.23;;
2362;SDS011;64265;51.664;7.626;2023-06-24T01:48:38;4.80;;;4.47;;
2362;SDS011;64265;51.664;7.626;2023-06-24T01:51:10;4.80;;;4.40;;
2362;SDS011;64265;51.664;7.626;2023-06-24T01:53:42;3.93;;;3.53;;
2362;SDS011;64265;51.664;7.626;2023-06-24T01:56:12;4.57;;;4.17;;
2362;SDS011;64265;51.664;7.626;2023-06-24T01:58:42;4.43;;;4.03;;
2362;SDS011;64265;51.664;7.626;2023-06-24T02:01:11;4.40;;;4.00;;
2362;SDS011;64265;51.664;7.626;2023-06-24T02:03:40;5.33;;;4.90;;
2362;SDS011;64265;51.664;7.626;2023-06-24T02:06:08;3.63;;;3.33;;
2362;SDS011;64265;51.664;7.626;2023-06-24T02:08:36;4.20;;;3.90;;
2362;SDS011;64265;51.664;7.626;2023-06-24T02:11:04;5.00;;;4.50;;
2362;SDS011;64265;51.664;7.626;2023-06-24T02:13:32;3.90;;;3.60;;
2362;SDS011;64265;51.664;7.626;2023-06-24T02:16:01;4.20;;;3.80;;
2362;SDS011;64265;51.664;7.626;2023-06-24T02:18:30;4.87;;;4.47;;
2362;SDS011;64265;51.664;7.626;2023-06-24T02:20:58;4.93;;;4.43;;
2362;SDS011;64265;51.664;7.626;2023-06-24T02:23:27;4.20;;;3.90;;
2362;SDS011;64265;51.664;7.626;2023-06-24T02:25:55;4.77;;;4.47;;
2362;SDS011;64265;51.664;7.626;2023-06-24T02:28:22;4.50;;;4.10;;
2362;SDS011;64265;51.664;7.626;2023-06-24T02:30:50;4.47;;;4.03;;
2362;SDS011;64265;51.664;7.626;2023-06-24T02:33:17;4.80;;;4.40;;
2362;SDS011;64265;51.664;7.626;2023-06-24T02:35:44;4.40;;;4.03;;
2362;SDS011;64265;51.664;7.626;2023-06-24T02:38:13;4.87;;;4.37;;
2362;SDS011;64265;51.664;7.626;2023-06-24T02:40:39;4.37;;;3.97;;
2362;SDS011;64265;51.664;7.626;2023-06-24T02:43:09;4.53;;;4.17;;
2362;SDS011;64265;51.664;7.626;2023-06-24T02:45:35;4.40;;;4.00;;
2362;SDS011;64265;51.664;7.626;2023-06-24T02:48:02;3.93;;;3.63;;
2362;SDS011;64265;51.664;7.626;2023-06-24T02:50:30;4.40;;;4.10;;
2362;SDS011;64265;51.664;7.626;2023-06-24T02:52:57;4.40;;;4.00;;
2362;SDS011;64265;51.664;7.626;2023-06-24T02:55:26;4.13;;;3.50;;
2362;SDS011;64265;51.664;7.626;2023-06-24T02:57:53;4.17;;;3.87;;
2362;SDS011;64265;51.664;7.626;2023-06-24T03:00:22;4.30;;;3.90;;
2362;SDS011;64265;51.664;7.626;2023-06-24T03:02:49;4.80;;;4.40;;
2362;SDS011;64265;51.664;7.626;2023-06-24T03:05:16;5.00;;;4.50;;
2362;SDS011;64265;51.664;7.626;2023-06-24T03:07:44;5.03;;;4.53;;
2362;SDS011;64265;51.664;7.626;2023-06-24T03:10:12;7.20;;;4.83;;
2362;SDS011;64265;51.664;7.626;2023-06-24T03:12:41;5.10;;;4.70;;
2362;SDS011;64265;51.664;7.626;2023-06-24T03:15:08;4.20;;;3.90;;
2362;SDS011;64265;51.664;7.626;2023-06-24T03:17:35;5.30;;;4.90;;
2362;SDS011;64265;51.664;7.626;2023-06-24T03:20:03;4.57;;;3.80;;
2362;SDS011;64265;51.664;7.626;2023-06-24T03:22:32;3.97;;;3.67;;
2362;SDS011;64265;51.664;7.626;2023-06-24T03:24:58;4.20;;;3.90;;
2362;SDS011;64265;51.664;7.626;2023-06-24T03:27:25;3.60;;;3.40;;
2362;SDS011;64265;51.664;7.626;2023-06-24T03:29:53;5.13;;;4.10;;
2362;SDS011;64265;51.664;7.626;2023-06-24T03:32:20;4.80;;;4.40;;
2362;SDS011;64265;51.664;7.626;2023-06-24T03:34:46;4.63;;;4.27;;
2362;SDS011;64265;51.664;7.626;2023-06-24T03:37:13;4.03;;;3.70;;
2362;SDS011;64265;51.664;7.626;2023-06-24T03:39:41;5.17;;;4.77;;
2362;SDS011;64265;51.664;7.626;2023-06-24T03:42:07;4.37;;;3.97;;
2362;SDS011;64265;51.664;7.626;2023-06-24T03:44:34;4.43;;;4.07;;
2362;SDS011;64265;51.664;7.626;2023-06-24T03:47:02;4.70;;;4.30;;
2362;SDS011;64265;51.664;7.626;2023-06-24T03:49:29;4.20;;;3.80;;
2362;SDS011;64265;51.664;7.626;2023-06-24T03:51:56;4.47;;;4.17;;
2362;SDS011;64265;51.664;7.626;2023-06-24T03:54:22;3.77;;;3.47;;
2362;SDS011;64265;51.664;7.626;2023-06-24T03:56:49;4.50;;;4.10;;
2362;SDS011;64265;51.664;7.626;2023-06-24T03:59:16;4.83;;;4.43;;
2362;SDS011;64265;51.664;7.626;2023-06-24T04:01:42;4.10;;;3.70;;
2362;SDS011;64265;51.664;7.626;2023-06-24T04:04:10;4.47;;;4.17;;
2362;SDS011;64265;51.664;7.626;2023-06-24T04:06:37;4.30;;;4.00;;
2362;SDS011;64265;51.664;7.626;2023-06-24T04:09:04;4.50;;;4.10;;
2362;SDS011;64265;51.664;7.626;2023-06-24T04:11:31;4.23;;;3.93;;
2362;SDS011;64265;51.664;7.626;2023-06-24T04:13:58;4.30;;;4.00;;
2362;SDS011;64265;51.664;7.626;2023-06-24T04:16:24;3.70;;;3.40;;
2362;SDS011;64265;51.664;7.626;2023-06-24T04:18:51;4.40;;;4.10;;
2362;SDS011;64265;51.664;7.626;2023-06-24T04:21:19;4.53;;;4.20;;
2362;SDS011;64265;51.664;7.626;2023-06-24T04:23:46;4.43;;;4.13;;
2362;SDS011;64265;51.664;7.626;2023-06-24T04:26:12;4.27;;;3.87;;
2362;SDS011;64265;51.664;7.626;2023-06-24T04:28:39;3.60;;;3.30;;
2362;SDS011;64265;51.664;7.626;2023-06-24T04:31:06;5.07;;;4.67;;
2362;SDS011;64265;51.664;7.626;2023-06-24T04:33:33;3.90;;;3.60;;
2362;SDS011;64265;51.664;7.626;2023-06-24T04:35:59;4.43;;;4.13;;
2362;SDS011;64265;51.664;7.626;2023-06-24T04:38:27;4.20;;;3.90;;
2362;SDS011;64265;51.664;7.626;2023-06-24T04:40:54;5.20;;;4.50;;
2362;SDS011;64265;51.664;7.626;2023-06-24T04:43:22;3.80;;;3.50;;
2362;SDS011;64265;51.664;7.626;2023-06-24T04:45:49;4.40;;;4.10;;
2362;SDS011;64265;51.664;7.626;2023-06-24T04:48:20;4.20;;;3.90;;
2362;SDS011;64265;51.664;7.626;2023-06-24T04:50:46;3.80;;;3.60;;
2362;SDS011;64265;51.664;7.626;2023-06-24T04:53:14;4.17;;;3.87;;
2362;SDS011;64265;51.664;7.626;2023-06-24T04:55:42;3.90;;;3.60;;
2362;SDS011;64265;51.664;7.626;2023-06-24T04:58:08;4.77;;;4.37;;
2362;SDS011;64265;51.664;7.626;2023-06-24T05:00:35;5.27;;;4.80;;
2362;SDS011;64265;51.664;7.626;2023-06-24T05:03:02;5.00;;;4.60;;
2362;SDS011;64265;51.664;7.626;2023-06-24T05:05:28;4.40;;;4.10;;
2362;SDS011;64265;51.664;7.626;2023-06-24T05:07:55;4.43;;;4.13;;
2362;SDS011;64265;51.664;7.626;2023-06-24T05:10:22;4.13;;;3.83;;
2362;SDS011;64265;51.664;7.626;2023-06-24T05:12:50;4.80;;;4.40;;
2362;SDS011;64265;51.664;7.626;2023-06-24T05:15:17;4.53;;;4.13;;
2362;SDS011;64265;51.664;7.626;2023-06-24T05:17:43;4.30;;;4.00;;
2362;SDS011;64265;51.664;7.626;2023-06-24T05:20:10;4.40;;;4.10;;
2362;SDS011;64265;51.664;7.626;2023-06-24T05:22:37;4.70;;;4.40;;
2362;SDS011;64265;51.664;7.626;2023-06-24T05:25:04;5.17;;;4.77;;
2362;SDS011;64265;51.664;7.626;2023-06-24T05:27:32;5.10;;;4.70;;
2362;SDS011;64265;51.664;7.626;2023-06-24T05:30:00;4.50;;;4.10;;
2362;SDS011;64265;51.664;7.626;2023-06-24T05:32:26;4.03;;;3.73;;
2362;SDS011;64265;51.664;7.626;2023-06-24T05:34:53;4.33;;;3.93;;
2362;SDS011;64265;51.664;7.626;2023-06-24T05:37:20;4.93;;;4.53;;
2362;SDS011;64265;51.664;7.626;2023-06-24T05:39:46;5.00;;;4.60;;
2362;SDS011;64265;51.664;7.626;2023-06-24T05:42:13;4.90;;;4.50;;
2362;SDS011;64265;51.664;7.626;2023-06-24T05:44:40;5.30;;;4.80;;
2362;SDS011;64265;51.664;7.626;2023-06-24T05:47:08;4.73;;;4.33;;
2362;SDS011;64265;51.664;7.626;2023-06-24T05:49:35;4.70;;;4.33;;
2362;SDS011;64265;51.664;7.626;2023-06-24T05:52:02;4.97;;;4.57;;
2362;SDS011;64265;51.664;7.626;2023-06-24T05:54:29;5.77;;;5.17;;
2362;SDS011;64265;51.664;7.626;2023-06-24T05:56:55;4.37;;;4.07;;
2362;SDS011;64265;51.664;7.626;2023-06-24T05:59:22;5.63;;;5.13;;
2362;SDS011;64265;51.664;7.626;2023-06-24T06:01:49;4.60;;;4.20;;
2362;SDS011;64265;51.664;7.626;2023-06-24T06:04:17;5.27;;;4.77;;
2362;SDS011;64265;51.664;7.626;2023-06-24T06:06:43;5.17;;;4.73;;
2362;SDS011;64265;51.664;7.626;2023-06-24T06:09:10;4.83;;;4.33;;
2362;SDS011;64265;51.664;7.626;2023-06-24T06:11:37;4.57;;;3.63;;
2362;SDS011;64265;51.664;7.626;2023-06-24T06:14:03;5.17;;;4.77;;
2362;SDS011;64265;51.664;7.626;2023-06-24T06:16:30;4.77;;;4.37;;
2362;SDS011;64265;51.664;7.626;2023-06-24T06:18:57;5.23;;;4.83;;
2362;SDS011;64265;51.664;7.626;2023-06-24T06:21:25;6.97;;;4.37;;
2362;SDS011;64265;51.664;7.626;2023-06-24T06:23:52;5.93;;;5.43;;
2362;SDS011;64265;51.664;7.626;2023-06-24T06:26:18;6.90;;;5.50;;
2362;SDS011;64265;51.664;7.626;2023-06-24T06:28:45;4.90;;;4.43;;
2362;SDS011;64265;51.664;7.626;2023-06-24T06:31:12;5.20;;;4.17;;
2362;SDS011;64265;51.664;7.626;2023-06-24T06:33:39;4.80;;;4.40;;
2362;SDS011;64265;51.664;7.626;2023-06-24T06:36:06;4.37;;;3.97;;
2362;SDS011;64265;51.664;7.626;2023-06-24T06:38:34;5.00;;;4.30;;
2362;SDS011;64265;51.664;7.626;2023-06-24T06:41:01;4.70;;;4.30;;
2362;SDS011;64265;51.664;7.626;2023-06-24T06:43:28;4.90;;;4.50;;
2362;SDS011;64265;51.664;7.626;2023-06-24T06:45:54;5.43;;;4.93;;
2362;SDS011;64265;51.664;7.626;2023-06-24T06:48:22;4.60;;;4.23;;
2362;SDS011;64265;51.664;7.626;2023-06-24T06:50:48;5.43;;;5.03;;
2362;SDS011;64265;51.664;7.626;2023-06-24T06:53:17;4.53;;;4.13;;
2362;SDS011;64265;51.664;7.626;2023-06-24T06:55:45;4.73;;;4.33;;
2362;SDS011;64265;51.664;7.626;2023-06-24T06:58:12;5.10;;;4.60;;
2362;SDS011;64265;51.664;7.626;2023-06-24T07:00:39;4.93;;;4.53;;
2362;SDS011;64265;51.664;7.626;2023-06-24T07:03:05;4.40;;;4.07;;
2362;SDS011;64265;51.664;7.626;2023-06-24T07:05:32;4.23;;;3.73;;
2362;SDS011;64265;51.664;7.626;2023-06-24T07:07:59;4.90;;;4.50;;
2362;SDS011;64265;51.664;7.626;2023-06-24T07:10:25;4.00;;;3.60;;
2362;SDS011;64265;51.664;7.626;2023-06-24T07:12:53;5.70;;;4.53;;
2362;SDS011;64265;51.664;7.626;2023-06-24T07:15:23;4.13;;;3.73;;
2362;SDS011;64265;51.664;7.626;2023-06-24T07:17:50;8.80;;;4.50;;
2362;SDS011;64265;51.664;7.626;2023-06-24T07:20:17;4.60;;;4.03;;
2362;SDS011;64265;51.664;7.626;2023-06-24T07:22:44;5.30;;;4.00;;
2362;SDS011;64265;51.664;7.626;2023-06-24T07:25:11;6.53;;;4.53;;
2362;SDS011;64265;51.664;7.626;2023-06-24T07:27:38;4.87;;;4.47;;
2362;SDS011;64265;51.664;7.626;2023-06-24T07:30:06;5.23;;;4.83;;
2362;SDS011;64265;51.664;7.626;2023-06-24T07:32:34;5.30;;;4.50;;
2362;SDS011;64265;51.664;7.626;2023-06-24T07:35:00;4.93;;;4.53;;
2362;SDS011;64265;51.664;7.626;2023-06-24T07:37:27;4.50;;;4.10;;
2362;SDS011;64265;51.664;7.626;2023-06-24T07:39:54;4.67;;;4.27;;
2362;SDS011;64265;51.664;7.626;2023-06-24T07:42:20;4.63;;;4.23;;
2362;SDS011;64265;51.664;7.626;2023-06-24T07:44:47;5.33;;;4.47;;
2362;SDS011;64265;51.664;7.626;2023-06-24T07:47:17;5.40;;;4.20;;
2362;SDS011;64265;51.664;7.626;2023-06-24T07:49:44;4.23;;;3.87;;
2362;SDS011;64265;51.664;7.626;2023-06-24T07:52:11;5.90;;;4.70;;
2362;SDS011;64265;51.664;7.626;2023-06-24T07:54:37;5.17;;;4.77;;
2362;SDS011;64265;51.664;7.626;2023-06-24T07:57:04;5.27;;;4.77;;
2362;SDS011;64265;51.664;7.626;2023-06-24T07:59:31;5.57;;;5.10;;
2362;SDS011;64265;51.664;7.626;2023-06-24T08:01:57;7.10;;;5.67;;
2362;SDS011;64265;51.664;7.626;2023-06-24T08:04:25;5.93;;;5.13;;
2362;SDS011;64265;51.664;7.626;2023-06-24T08:06:52;5.40;;;4.90;;
2362;SDS011;64265;51.664;7.626;2023-06-24T08:09:19;5.00;;;4.60;;
2362;SDS011;64265;51.664;7.626;2023-06-24T08:11:46;8.47;;;5.37;;
2362;SDS011;64265;51.664;7.626;2023-06-24T08:14:12;6.27;;;5.67;;
2362;SDS011;64265;51.664;7.626;2023-06-24T08:16:39;7.90;;;5.10;;
2362;SDS011;64265;51.664;7.626;2023-06-24T08:19:06;5.77;;;5.07;;
2362;SDS011;64265;51.664;7.626;2023-06-24T08:21:34;7.50;;;6.07;;
2362;SDS011;64265;51.664;7.626;2023-06-24T08:24:02;6.90;;;5.53;;
2362;SDS011;64265;51.664;7.626;2023-06-24T08:26:29;7.87;;;7.00;;
2362;SDS011;64265;51.664;7.626;2023-06-24T08:28:56;9.87;;;6.27;;
2362;SDS011;64265;51.664;7.626;2023-06-24T08:31:24;7.20;;;5.50;;
2362;SDS011;64265;51.664;7.626;2023-06-24T08:33:51;7.70;;;6.50;;
2362;SDS011;64265;51.664;7.626;2023-06-24T08:36:19;6.97;;;5.17;;
2362;SDS011;64265;51.664;7.626;2023-06-24T08:38:48;6.87;;;6.27;;
2362;SDS011;64265;51.664;7.626;2023-06-24T08:41:15;7.23;;;5.63;;
2362;SDS011;64265;51.664;7.626;2023-06-24T08:43:42;6.30;;;5.60;;
2362;SDS011;64265;51.664;7.626;2023-06-24T08:46:08;9.33;;;7.07;;
2362;SDS011;64265;51.664;7.626;2023-06-24T08:48:35;10.37;;;7.17;;
2362;SDS011;64265;51.664;7.626;2023-06-24T08:51:05;8.77;;;6.33;;
2362;SDS011;64265;51.664;7.626;2023-06-24T08:53:34;8.87;;;6.20;;
2362;SDS011;64265;51.664;7.626;2023-06-24T08:56:05;6.90;;;6.20;;
2362;SDS011;64265;51.664;7.626;2023-06-24T08:58:32;6.73;;;6.13;;
2362;SDS011;64265;51.664;7.626;2023-06-24T09:00:59;7.60;;;6.20;;
2362;SDS011;64265;51.664;7.626;2023-06-24T09:03:27;7.13;;;6.30;;
2362;SDS011;64265;51.664;7.626;2023-06-24T09:05:53;6.97;;;6.27;;
2362;SDS011;64265;51.664;7.626;2023-06-24T09:08:20;6.60;;;5.80;;
2362;SDS011;64265;51.664;7.626;2023-06-24T09:10:52;7.83;;;6.20;;
2362;SDS011;64265;51.664;7.626;2023-06-24T09:13:21;7.53;;;6.83;;
2362;SDS011;64265;51.664;7.626;2023-06-24T09:15:59;6.80;;;6.10;;
2362;SDS011;64265;51.664;7.626;2023-06-24T09:18:30;8.40;;;5.30;;
2362;SDS011;64265;51.664;7.626;2023-06-24T09:20:57;5.70;;;5.20;;
2362;SDS011;64265;51.664;7.626;2023-06-24T09:23:27;7.63;;;6.93;;
2362;SDS011;64265;51.664;7.626;2023-06-24T09:25:57;6.93;;;6.23;;
2362;SDS011;64265;51.664;7.626;2023-06-24T09:28:27;7.27;;;6.10;;
2362;SDS011;64265;51.664;7.626;2023-06-24T09:31:03;10.53;;;6.40;;
2362;SDS011;64265;51.664;7.626;2023-06-24T09:33:34;7.40;;;5.90;;
2362;SDS011;64265;51.664;7.626;2023-06-24T09:36:02;8.83;;;5.77;;
2362;SDS011;64265;51.664;7.626;2023-06-24T09:38:32;8.40;;;6.20;;
2362;SDS011;64265;51.664;7.626;2023-06-24T09:41:01;7.40;;;6.30;;
2362;SDS011;64265;51.664;7.626;2023-06-24T09:43:30;6.50;;;5.87;;
2362;SDS011;64265;51.664;7.626;2023-06-24T09:46:00;6.77;;;6.00;;
2362;SDS011;64265;51.664;7.626;2023-06-24T09:48:27;6.07;;;5.57;;
2362;SDS011;64265;51.664;7.626;2023-06-24T09:50:54;5.57;;;4.87;;
2362;SDS011;64265;51.664;7.626;2023-06-24T09:53:25;9.47;;;6.30;;
2362;SDS011;64265;51.664;7.626;2023-06-24T09:55:52;6.10;;;5.00;;
2362;SDS011;64265;51.664;7.626;2023-06-24T09:58:19;8.03;;;6.20;;
2362;SDS011;64265;51.664;7.626;2023-06-24T10:00:48;6.30;;;5.70;;
2362;SDS011;64265;51.664;7.626;2023-06-24T10:03:16;9.33;;;6.83;;
2362;SDS011;64265;51.664;7.626;2023-06-24T10:05:43;6.27;;;5.67;;
2362;SDS011;64265;51.664;7.626;2023-06-24T10:08:10;6.97;;;6.27;;
2362;SDS011;64265;51.664;7.626;2023-06-24T10:10:39;7.73;;;6.03;;
2362;SDS011;64265;51.664;7.626;2023-06-24T10:13:06;5.37;;;4.80;;
2362;SDS011;64265;51.664;7.626;2023-06-24T10:15:33;5.77;;;5.20;;
2362;SDS011;64265;51.664;7.626;2023-06-24T10:18:03;5.23;;;4.83;;
2362;SDS011;64265;51.664;7.626;2023-06-24T10:20:55;6.37;;;5.40;;
2362;SDS011;64265;51.664;7.626;2023-06-24T10:23:24;5.60;;;5.10;;
2362;SDS011;64265;51.664;7.626;2023-06-24T10:25:56;5.00;;;4.60;;
2362;SDS011;64265;51.664;7.626;2023-06-24T10:28:23;5.53;;;5.03;;
2362;SDS011;64265;51.664;7.626;2023-06-24T10:30:53;5.57;;;5.07;;
2362;SDS011;64265;51.664;7.626;2023-06-24T10:33:22;5.60;;;5.07;;
2362;SDS011;64265;51.664;7.626;2023-06-24T10:35:49;5.67;;;5.17;;
2362;SDS011;64265;51.664;7.626;2023-06-24T10:38:17;6.93;;;5.10;;
2362;SDS011;64265;51.664;7.626;2023-06-24T10:40:44;5.63;;;5.23;;
2362;SDS011;64265;51.664;7.626;2023-06-24T10:43:25;7.70;;;4.87;;
2362;SDS011;64265;51.664;7.626;2023-06-24T10:45:54;5.07;;;4.67;;
2362;SDS011;64265;51.664;7.626;2023-06-24T10:48:23;5.47;;;4.77;;
2362;SDS011;64265;51.664;7.626;2023-06-24T10:50:50;5.67;;;5.17;;
2362;SDS011;64265;51.664;7.626;2023-06-24T10:53:17;5.63;;;5.00;;
2362;SDS011;64265;51.664;7.626;2023-06-24T10:55:44;7.67;;;5.17;;
2362;SDS011;64265;51.664;7.626;2023-06-24T10:58:12;5.40;;;5.00;;
2362;SDS011;64265;51.664;7.626;2023-06-24T11:00:40;5.87;;;5.20;;
2362;SDS011;64265;51.664;7.626;2023-06-24T11:03:08;5.33;;;4.83;;
2362;SDS011;64265;51.664;7.626;2023-06-24T11:05:39;5.50;;;5.00;;
2362;SDS011;64265;51.664;7.626;2023-06-24T11:08:06;5.70;;;5.20;;
2362;SDS011;64265;51.664;7.626;2023-06-24T11:10:33;5.30;;;4.83;;
2362;SDS011;64265;51.664;7.626;2023-06-24T11:13:07;5.30;;;4.80;;
2362;SDS011;64265;51.664;7.626;2023-06-24T11:15:34;5.30;;;4.80;;
2362;SDS011;64265;51.664;7.626;2023-06-24T11:18:01;5.83;;;4.37;;
2362;SDS011;64265;51.664;7.626;2023-06-24T11:20:29;5.83;;;5.33;;
2362;SDS011;64265;51.664;7.626;2023-06-24T11:22:57;5.20;;;4.80;;
2362;SDS011;64265;51.664;7.626;2023-06-24T11:25:24;4.87;;;4.47;;
2362;SDS011;64265;51.664;7.626;2023-06-24T11:27:50;5.70;;;5.20;;
2362;SDS011;64265;51.664;7.626;2023-06-24T11:30:18;4.63;;;4.23;;
2362;SDS011;64265;51.664;7.626;2023-06-24T11:32:45;4.93;;;4.53;;
2362;SDS011;64265;51.664;7.626;2023-06-24T11:35:13;5.53;;;5.03;;
2362;SDS011;64265;51.664;7.626;2023-06-24T11:37:41;4.57;;;4.17;;
2362;SDS011;64265;51.664;7.626;2023-06-24T11:40:10;4.90;;;4.50;;
2362;SDS011;64265;51.664;7.626;2023-06-24T11:42:38;6.20;;;4.37;;
2362;SDS011;64265;51.664;7.626;2023-06-24T11:45:06;4.67;;;4.27;;
2362;SDS011;64265;51.664;7.626;2023-06-24T11:47:34;6.30;;;4.03;;
2362;SDS011;64265;51.664;7.626;2023-06-24T11:50:02;5.37;;;4.93;;
2362;SDS011;64265;51.664;7.626;2023-06-24T11:52:39;5.33;;;4.83;;
2362;SDS011;64265;51.664;7.626;2023-06-24T11:55:16;6.00;;;5.07;;
2362;SDS011;64265;51.664;7.626;2023-06-24T11:57:47;4.60;;;4.23;;
2362;SDS011;64265;51.664;7.626;2023-06-24T12:00:15;5.47;;;5.00;;
2362;SDS011;64265;51.664;7.626;2023-06-24T12:02:42;4.80;;;4.37;;
2362;SDS011;64265;51.664;7.626;2023-06-24T12:05:09;5.00;;;3.93;;
2362;SDS011;64265;51.664;7.626;2023-06-24T12:07:35;4.60;;;4.20;;
2362;SDS011;64265;51.664;7.626;2023-06-24T12:10:02;6.70;;;4.30;;
2362;SDS011;64265;51.664;7.626;2023-06-24T12:12:31;5.37;;;4.87;;
2362;SDS011;64265;51.664;7.626;2023-06-24T12:14:58;4.80;;;4.30;;
2362;SDS011;64265;51.664;7.626;2023-06-24T12:17:24;5.50;;;5.00;;
2362;SDS011;64265;51.664;7.626;2023-06-24T12:19:51;5.43;;;5.00;;
2362;SDS011;64265;51.664;7.626;2023-06-24T12:22:18;5.47;;;4.50;;
2362;SDS011;64265;51.664;7.626;2023-06-24T12:24:45;4.70;;;4.30;;
2362;SDS011;64265;51.664;7.626;2023-06-24T12:27:12;6.93;;;4.17;;
2362;SDS011;64265;51.664;7.626;2023-06-24T12:29:40;4.77;;;4.30;;
2362;SDS011;64265;51.664;7.626;2023-06-24T12:32:07;4.70;;;4.30;;
2362;SDS011;64265;51.664;7.626;2023-06-24T12:34:34;4.50;;;4.10;;
2362;SDS011;64265;51.664;7.626;2023-06-24T12:37:00;4.70;;;4.30;;
2362;SDS011;64265;51.664;7.626;2023-06-24T12:39:27;4.47;;;4.07;;
2362;SDS011;64265;51.664;7.626;2023-06-24T12:41:53;5.10;;;4.60;;
2362;SDS011;64265;51.664;7.626;2023-06-24T12:44:20;4.60;;;4.20;;
2362;SDS011;64265;51.664;7.626;2023-06-24T12:46:48;4.60;;;4.20;;
2362;SDS011;64265;51.664;7.626;2023-06-24T12:49:15;4.57;;;4.17;;
2362;SDS011;64265;51.664;7.626;2023-06-24T12:51:41;5.80;;;4.07;;
2362;SDS011;64265;51.664;7.626;2023-06-24T12:54:08;6.70;;;4.20;;
2362;SDS011;64265;51.664;7.626;2023-06-24T12:56:35;4.30;;;3.90;;
2362;SDS011;64265;51.664;7.626;2023-06-24T12:59:02;7.50;;;4.97;;
2362;SDS011;64265;51.664;7.626;2023-06-24T13:01:28;4.50;;;4.10;;
2362;SDS011;64265;51.664;7.626;2023-06-24T13:03:56;4.00;;;3.70;;
2362;SDS011;64265;51.664;7.626;2023-06-24T13:06:24;3.70;;;3.40;;
2362;SDS011;64265;51.664;7.626;2023-06-24T13:08:51;3.90;;;3.50;;
2362;SDS011;64265;51.664;7.626;2023-06-24T13:11:17;3.60;;;3.30;;
2362;SDS011;64265;51.664;7.626;2023-06-24T13:13:44;4.07;;;3.70;;
2362;SDS011;64265;51.664;7.626;2023-06-24T13:16:11;3.80;;;3.50;;
2362;SDS011;64265;51.664;7.626;2023-06-24T13:18:37;4.20;;;3.60;;
2362;SDS011;64265;51.664;7.626;2023-06-24T13:21:05;4.70;;;3.83;;
2362;SDS011;64265;51.664;7.626;2023-06-24T13:23:32;4.27;;;3.70;;
2362;SDS011;64265;51.664;7.626;2023-06-24T13:26:02;4.50;;;3.50;;
2362;SDS011;64265;51.664;7.626;2023-06-24T13:28:29;3.73;;;3.43;;
2362;SDS011;64265;51.664;7.626;2023-06-24T13:30:56;7.47;;;4.17;;
2362;SDS011;64265;51.664;7.626;2023-06-24T13:33:23;3.70;;;3.40;;
2362;SDS011;64265;51.664;7.626;2023-06-24T13:35:50;5.03;;;3.23;;
2362;SDS011;64265;51.664;7.626;2023-06-24T13:38:18;3.70;;;3.40;;
2362;SDS011;64265;51.664;7.626;2023-06-24T13:40:45;3.20;;;2.90;;
2362;SDS011;64265;51.664;7.626;2023-06-24T13:43:12;4.20;;;3.20;;
2362;SDS011;64265;51.664;7.626;2023-06-24T13:45:38;5.43;;;3.57;;
2362;SDS011;64265;51.664;7.626;2023-06-24T13:48:05;4.20;;;3.60;;
2362;SDS011;64265;51.664;7.626;2023-06-24T13:50:32;6.07;;;3.67;;
2362;SDS011;64265;51.664;7.626;2023-06-24T13:52:59;3.33;;;2.90;;
2362;SDS011;64265;51.664;7.626;2023-06-24T13:55:27;3.90;;;3.20;;
2362;SDS011;64265;51.664;7.626;2023-06-24T13:57:53;4.00;;;3.60;;
2362;SDS011;64265;51.664;7.626;2023-06-24T14:00:20;9.17;;;4.40;;
2362;SDS011;64265;51.664;7.626;2023-06-24T14:02:47;5.70;;;3.50;;
2362;SDS011;64265;51.664;7.626;2023-06-24T14:05:13;3.50;;;3.10;;
2362;SDS011;64265;51.664;7.626;2023-06-24T14:07:40;3.23;;;2.90;;
2362;SDS011;64265;51.664;7.626;2023-06-24T14:10:07;3.40;;;3.07;;
2362;SDS011;64265;51.664;7.626;2023-06-24T14:12:35;5.47;;;3.43;;
2362;SDS011;64265;51.664;7.626;2023-06-24T14:15:02;3.57;;;3.17;;
2362;SDS011;64265;51.664;7.626;2023-06-24T14:17:29;3.60;;;3.13;;
2362;SDS011;64265;51.664;7.626;2023-06-24T14:19:56;3.27;;;2.97;;
2362;SDS011;64265;51.664;7.626;2023-06-24T14:22:23;4.20;;;3.90;;
2362;SDS011;64265;51.664;7.626;2023-06-24T14:24:51;3.93;;;3.10;;
2362;SDS011;64265;51.664;7.626;2023-06-24T14:27:17;3.00;;;2.80;;
2362;SDS011;64265;51.664;7.626;2023-06-24T14:29:46;13.43;;;3.40;;
2362;SDS011;64265;51.664;7.626;2023-06-24T14:32:12;4.57;;;3.70;;
2362;SDS011;64265;51.664;7.626;2023-06-24T14:34:39;4.30;;;3.90;;
2362;SDS011;64265;51.664;7.626;2023-06-24T14:37:06;3.50;;;3.00;;
2362;SDS011;64265;51.664;7.626;2023-06-24T14:39:32;3.90;;;3.50;;
2362;SDS011;64265;51.664;7.626;2023-06-24T14:41:59;4.50;;;4.10;;
2362;SDS011;64265;51.664;7.626;2023-06-24T14:44:26;4.37;;;3.53;;
2362;SDS011;64265;51.664;7.626;2023-06-24T14:46:54;4.07;;;3.53;;
2362;SDS011;64265;51.664;7.626;2023-06-24T14:49:20;16.37;;;3.40;;
2362;SDS011;64265;51.664;7.626;2023-06-24T14:51:47;4.13;;;3.20;;
2362;SDS011;64265;51.664;7.626;2023-06-24T14:54:14;3.60;;;3.30;;
2362;SDS011;64265;51.664;7.626;2023-06-24T14:56:40;4.00;;;3.60;;
2362;SDS011;64265;51.664;7.626;2023-06-24T14:59:07;3.47;;;3.17;;
2362;SDS011;64265;51.664;7.626;2023-06-24T15:01:34;3.03;;;2.73;;
2362;SDS011;64265;51.664;7.626;2023-06-24T15:04:02;3.70;;;3.27;;
2362;SDS011;64265;51.664;7.626;2023-06-24T15:06:29;3.93;;;3.40;;